sensor_id;sensor_type;location;lat;lon;timestamp;P1;durP1;ratioP1;P2;durP2;ratioP2
44137;SDS011;29800;55.942;37.314;2023-05-10T00:02:03;17.50;;;8.80;;
44137;SDS011;29800;55.942;37.314;2023-05-10T00:04:29;17.23;;;9.40;;
44137;SDS011;29800;55.942;37.314;2023-05-10T00:06:56;17.63;;;8.55;;
44137;SDS011;29800;55.942;37.314;2023-05-10T00:09:22;15.82;;;8.95;;
44137;SDS011;29800;55.942;37.314;2023-05-10T00:11:48;15.23;;;7.72;;
44137;SDS011;29800;55.942;37.314;2023-05-10T00:14:15;12.75;;;6.80;;
44137;SDS011;29800;55.942;37.314;2023-05-10T00:16:41;15.05;;;6.70;;
44137;SDS011;29800;55.942;37.314;2023-05-10T00:19:07;14.98;;;7.07;;
44137;SDS011;29800;55.942;37.314;2023-05-10T00:21:33;12.70;;;6.40;;
44137;SDS011;29800;55.942;37.314;2023-05-10T00:24:00;15.30;;;7.05;;
44137;SDS011;29800;55.942;37.314;2023-05-10T00:26:26;14.65;;;7.47;;
44137;SDS011;29800;55.942;37.314;2023-05-10T00:28:54;15.68;;;7.10;;
44137;SDS011;29800;55.942;37.314;2023-05-10T00:31:21;16.15;;;7.22;;
44137;SDS011;29800;55.942;37.314;2023-05-10T00:33:47;13.68;;;7.22;;
44137;SDS011;29800;55.942;37.314;2023-05-10T00:36:14;14.13;;;7.03;;
44137;SDS011;29800;55.942;37.314;2023-05-10T00:38:40;14.02;;;7.03;;
44137;SDS011;29800;55.942;37.314;2023-05-10T00:41:06;11.68;;;6.03;;
44137;SDS011;29800;55.942;37.314;2023-05-10T00:43:35;12.70;;;6.30;;
44137;SDS011;29800;55.942;37.314;2023-05-10T00:46:03;11.68;;;6.30;;
44137;SDS011;29800;55.942;37.314;2023-05-10T00:48:30;12.73;;;5.95;;
44137;SDS011;29800;55.942;37.314;2023-05-10T00:50:57;13.38;;;5.97;;
44137;SDS011;29800;55.942;37.314;2023-05-10T00:53:23;15.07;;;5.70;;
44137;SDS011;29800;55.942;37.314;2023-05-10T00:55:51;10.68;;;5.63;;
44137;SDS011;29800;55.942;37.314;2023-05-10T00:58:17;14.27;;;5.53;;
44137;SDS011;29800;55.942;37.314;2023-05-10T01:00:43;12.02;;;5.95;;
44137;SDS011;29800;55.942;37.314;2023-05-10T01:03:12;12.77;;;5.93;;
44137;SDS011;29800;55.942;37.314;2023-05-10T01:05:38;10.27;;;5.45;;
44137;SDS011;29800;55.942;37.314;2023-05-10T01:08:04;9.57;;;5.10;;
44137;SDS011;29800;55.942;37.314;2023-05-10T01:10:31;10.65;;;5.43;;
44137;SDS011;29800;55.942;37.314;2023-05-10T01:12:58;10.00;;;5.40;;
44137;SDS011;29800;55.942;37.314;2023-05-10T01:15:26;12.82;;;6.03;;
44137;SDS011;29800;55.942;37.314;2023-05-10T01:17:52;11.73;;;5.93;;
44137;SDS011;29800;55.942;37.314;2023-05-10T01:20:19;11.52;;;5.50;;
44137;SDS011;29800;55.942;37.314;2023-05-10T01:22:50;11.70;;;5.75;;
44137;SDS011;29800;55.942;37.314;2023-05-10T01:34:07;10.98;;;5.53;;
44137;SDS011;29800;55.942;37.314;2023-05-10T01:36:50;14.43;;;6.50;;
44137;SDS011;29800;55.942;37.314;2023-05-10T01:39:24;11.95;;;6.20;;
44137;SDS011;29800;55.942;37.314;2023-05-10T01:42:08;10.10;;;5.80;;
44137;SDS011;29800;55.942;37.314;2023-05-10T01:44:42;12.70;;;5.90;;
44137;SDS011;29800;55.942;37.314;2023-05-10T01:47:31;11.95;;;6.22;;
44137;SDS011;29800;55.942;37.314;2023-05-10T01:50:19;9.80;;;6.07;;
44137;SDS011;29800;55.942;37.314;2023-05-10T01:52:51;13.23;;;6.15;;
44137;SDS011;29800;55.942;37.314;2023-05-10T01:55:21;10.40;;;5.88;;
44137;SDS011;29800;55.942;37.314;2023-05-10T01:57:52;12.10;;;5.50;;
44137;SDS011;29800;55.942;37.314;2023-05-10T02:00:26;16.17;;;5.95;;
44137;SDS011;29800;55.942;37.314;2023-05-10T02:02:54;18.48;;;6.85;;
44137;SDS011;29800;55.942;37.314;2023-05-10T02:05:21;19.02;;;7.00;;
44137;SDS011;29800;55.942;37.314;2023-05-10T02:07:50;13.45;;;6.70;;
44137;SDS011;29800;55.942;37.314;2023-05-10T02:10:17;12.80;;;6.40;;
44137;SDS011;29800;55.942;37.314;2023-05-10T02:12:47;12.07;;;7.00;;
44137;SDS011;29800;55.942;37.314;2023-05-10T02:15:17;12.25;;;5.97;;
44137;SDS011;29800;55.942;37.314;2023-05-10T02:17:47;24.25;;;7.07;;
44137;SDS011;29800;55.942;37.314;2023-05-10T02:20:14;16.05;;;6.55;;
44137;SDS011;29800;55.942;37.314;2023-05-10T02:22:42;21.30;;;7.22;;
44137;SDS011;29800;55.942;37.314;2023-05-10T02:25:10;14.82;;;7.00;;
44137;SDS011;29800;55.942;37.314;2023-05-10T02:27:39;15.82;;;6.72;;
44137;SDS011;29800;55.942;37.314;2023-05-10T02:30:08;12.93;;;6.85;;
44137;SDS011;29800;55.942;37.314;2023-05-10T02:32:36;14.10;;;6.10;;
44137;SDS011;29800;55.942;37.314;2023-05-10T02:35:04;12.20;;;6.40;;
44137;SDS011;29800;55.942;37.314;2023-05-10T02:37:31;19.60;;;6.72;;
44137;SDS011;29800;55.942;37.314;2023-05-10T02:40:00;17.08;;;6.72;;
44137;SDS011;29800;55.942;37.314;2023-05-10T02:42:29;16.13;;;6.00;;
44137;SDS011;29800;55.942;37.314;2023-05-10T02:45:02;13.40;;;6.47;;
44137;SDS011;29800;55.942;37.314;2023-05-10T02:47:33;15.38;;;5.90;;
44137;SDS011;29800;55.942;37.314;2023-05-10T02:50:00;13.45;;;6.78;;
44137;SDS011;29800;55.942;37.314;2023-05-10T02:52:29;16.45;;;6.13;;
44137;SDS011;29800;55.942;37.314;2023-05-10T02:55:16;16.02;;;6.60;;
44137;SDS011;29800;55.942;37.314;2023-05-10T02:57:48;13.52;;;6.03;;
44137;SDS011;29800;55.942;37.314;2023-05-10T03:00:20;15.10;;;6.47;;
44137;SDS011;29800;55.942;37.314;2023-05-10T03:02:46;16.60;;;5.97;;
44137;SDS011;29800;55.942;37.314;2023-05-10T03:05:13;10.98;;;5.60;;
44137;SDS011;29800;55.942;37.314;2023-05-10T03:07:39;13.30;;;6.57;;
44137;SDS011;29800;55.942;37.314;2023-05-10T03:10:06;12.07;;;6.35;;
44137;SDS011;29800;55.942;37.314;2023-05-10T03:12:41;13.95;;;6.57;;
44137;SDS011;29800;55.942;37.314;2023-05-10T03:18:01;18.67;;;6.15;;
44137;SDS011;29800;55.942;37.314;2023-05-10T03:20:39;14.60;;;5.63;;
44137;SDS011;29800;55.942;37.314;2023-05-10T03:23:20;12.05;;;5.80;;
44137;SDS011;29800;55.942;37.314;2023-05-10T03:25:52;12.07;;;5.55;;
44137;SDS011;29800;55.942;37.314;2023-05-10T03:28:18;12.55;;;6.30;;
44137;SDS011;29800;55.942;37.314;2023-05-10T03:30:47;14.55;;;5.93;;
44137;SDS011;29800;55.942;37.314;2023-05-10T03:33:13;10.73;;;5.47;;
44137;SDS011;29800;55.942;37.314;2023-05-10T03:35:43;13.52;;;5.68;;
44137;SDS011;29800;55.942;37.314;2023-05-10T03:38:12;12.05;;;6.15;;
44137;SDS011;29800;55.942;37.314;2023-05-10T03:40:39;10.80;;;5.45;;
44137;SDS011;29800;55.942;37.314;2023-05-10T03:43:06;16.05;;;5.50;;
44137;SDS011;29800;55.942;37.314;2023-05-10T03:45:33;12.40;;;6.05;;
44137;SDS011;29800;55.942;37.314;2023-05-10T03:47:59;13.85;;;5.70;;
44137;SDS011;29800;55.942;37.314;2023-05-10T03:50:25;14.07;;;5.68;;
44137;SDS011;29800;55.942;37.314;2023-05-10T03:52:52;16.85;;;6.25;;
44137;SDS011;29800;55.942;37.314;2023-05-10T03:55:19;20.20;;;5.20;;
44137;SDS011;29800;55.942;37.314;2023-05-10T03:57:45;12.70;;;5.50;;
44137;SDS011;29800;55.942;37.314;2023-05-10T04:00:12;13.55;;;4.88;;
44137;SDS011;29800;55.942;37.314;2023-05-10T04:02:41;13.63;;;5.00;;
44137;SDS011;29800;55.942;37.314;2023-05-10T04:05:12;19.77;;;5.50;;
44137;SDS011;29800;55.942;37.314;2023-05-10T04:07:38;10.45;;;4.65;;
44137;SDS011;29800;55.942;37.314;2023-05-10T04:10:05;12.18;;;4.68;;
44137;SDS011;29800;55.942;37.314;2023-05-10T04:12:32;9.23;;;4.90;;
44137;SDS011;29800;55.942;37.314;2023-05-10T04:14:58;8.23;;;4.53;;
44137;SDS011;29800;55.942;37.314;2023-05-10T04:17:24;11.75;;;4.90;;
44137;SDS011;29800;55.942;37.314;2023-05-10T04:19:50;15.25;;;4.82;;
44137;SDS011;29800;55.942;37.314;2023-05-10T04:22:20;13.27;;;4.97;;
44137;SDS011;29800;55.942;37.314;2023-05-10T04:24:46;13.88;;;5.30;;
44137;SDS011;29800;55.942;37.314;2023-05-10T04:27:12;8.98;;;4.47;;
44137;SDS011;29800;55.942;37.314;2023-05-10T04:29:38;8.10;;;4.35;;
44137;SDS011;29800;55.942;37.314;2023-05-10T04:32:05;8.57;;;3.80;;
44137;SDS011;29800;55.942;37.314;2023-05-10T04:34:31;11.68;;;4.15;;
44137;SDS011;29800;55.942;37.314;2023-05-10T04:36:59;7.78;;;4.18;;
44137;SDS011;29800;55.942;37.314;2023-05-10T04:39:26;6.72;;;3.88;;
44137;SDS011;29800;55.942;37.314;2023-05-10T04:41:52;10.25;;;3.90;;
44137;SDS011;29800;55.942;37.314;2023-05-10T04:44:19;7.80;;;3.95;;
44137;SDS011;29800;55.942;37.314;2023-05-10T04:46:45;5.97;;;3.45;;
44137;SDS011;29800;55.942;37.314;2023-05-10T04:49:11;6.30;;;3.67;;
44137;SDS011;29800;55.942;37.314;2023-05-10T04:51:38;7.80;;;3.70;;
44137;SDS011;29800;55.942;37.314;2023-05-10T04:54:04;8.13;;;4.20;;
44137;SDS011;29800;55.942;37.314;2023-05-10T04:56:30;9.43;;;3.67;;
44137;SDS011;29800;55.942;37.314;2023-05-10T04:58:56;6.80;;;3.50;;
44137;SDS011;29800;55.942;37.314;2023-05-10T05:01:23;12.15;;;4.20;;
44137;SDS011;29800;55.942;37.314;2023-05-10T05:03:49;10.75;;;3.72;;
44137;SDS011;29800;55.942;37.314;2023-05-10T05:06:16;7.38;;;3.80;;
44137;SDS011;29800;55.942;37.314;2023-05-10T05:08:42;7.65;;;4.30;;
44137;SDS011;29800;55.942;37.314;2023-05-10T05:11:08;14.82;;;3.65;;
44137;SDS011;29800;55.942;37.314;2023-05-10T05:13:35;9.57;;;3.90;;
44137;SDS011;29800;55.942;37.314;2023-05-10T05:16:01;7.97;;;3.65;;
44137;SDS011;29800;55.942;37.314;2023-05-10T05:18:28;12.82;;;3.90;;
44137;SDS011;29800;55.942;37.314;2023-05-10T05:20:55;12.45;;;3.78;;
44137;SDS011;29800;55.942;37.314;2023-05-10T05:23:21;9.05;;;3.20;;
44137;SDS011;29800;55.942;37.314;2023-05-10T05:25:53;10.07;;;3.50;;
44137;SDS011;29800;55.942;37.314;2023-05-10T05:28:20;6.25;;;2.92;;
44137;SDS011;29800;55.942;37.314;2023-05-10T05:30:46;8.57;;;2.97;;
44137;SDS011;29800;55.942;37.314;2023-05-10T05:33:13;7.65;;;2.80;;
44137;SDS011;29800;55.942;37.314;2023-05-10T05:35:41;6.53;;;2.85;;
44137;SDS011;29800;55.942;37.314;2023-05-10T05:38:10;8.32;;;2.90;;
44137;SDS011;29800;55.942;37.314;2023-05-10T05:40:36;6.45;;;2.70;;
44137;SDS011;29800;55.942;37.314;2023-05-10T05:43:03;9.77;;;2.33;;
44137;SDS011;29800;55.942;37.314;2023-05-10T05:45:29;6.10;;;2.45;;
44137;SDS011;29800;55.942;37.314;2023-05-10T05:47:55;7.63;;;2.40;;
44137;SDS011;29800;55.942;37.314;2023-05-10T05:50:21;10.60;;;2.70;;
44137;SDS011;29800;55.942;37.314;2023-05-10T05:52:48;9.48;;;2.78;;
44137;SDS011;29800;55.942;37.314;2023-05-10T05:55:14;7.82;;;1.85;;
44137;SDS011;29800;55.942;37.314;2023-05-10T05:57:40;7.65;;;2.42;;
44137;SDS011;29800;55.942;37.314;2023-05-10T06:00:07;6.30;;;2.40;;
44137;SDS011;29800;55.942;37.314;2023-05-10T06:02:40;9.43;;;2.55;;
44137;SDS011;29800;55.942;37.314;2023-05-10T06:05:06;9.02;;;2.60;;
44137;SDS011;29800;55.942;37.314;2023-05-10T06:07:33;10.75;;;2.50;;
44137;SDS011;29800;55.942;37.314;2023-05-10T06:09:59;11.77;;;2.45;;
44137;SDS011;29800;55.942;37.314;2023-05-10T06:12:26;11.25;;;2.30;;
44137;SDS011;29800;55.942;37.314;2023-05-10T06:14:52;6.50;;;2.47;;
44137;SDS011;29800;55.942;37.314;2023-05-10T06:17:18;5.43;;;2.60;;
44137;SDS011;29800;55.942;37.314;2023-05-10T06:19:44;5.70;;;2.40;;
44137;SDS011;29800;55.942;37.314;2023-05-10T06:22:11;6.63;;;2.05;;
44137;SDS011;29800;55.942;37.314;2023-05-10T06:24:37;5.80;;;2.30;;
44137;SDS011;29800;55.942;37.314;2023-05-10T06:27:03;10.85;;;2.33;;
44137;SDS011;29800;55.942;37.314;2023-05-10T06:29:29;7.28;;;2.33;;
44137;SDS011;29800;55.942;37.314;2023-05-10T06:31:56;8.57;;;2.45;;
44137;SDS011;29800;55.942;37.314;2023-05-10T06:34:22;9.02;;;2.50;;
44137;SDS011;29800;55.942;37.314;2023-05-10T06:36:48;10.00;;;2.70;;
44137;SDS011;29800;55.942;37.314;2023-05-10T06:39:15;6.18;;;1.98;;
44137;SDS011;29800;55.942;37.314;2023-05-10T06:41:41;7.93;;;2.30;;
44137;SDS011;29800;55.942;37.314;2023-05-10T06:44:07;8.50;;;2.67;;
44137;SDS011;29800;55.942;37.314;2023-05-10T06:46:34;8.65;;;2.13;;
44137;SDS011;29800;55.942;37.314;2023-05-10T06:49:00;9.55;;;2.55;;
44137;SDS011;29800;55.942;37.314;2023-05-10T06:51:27;6.63;;;2.15;;
44137;SDS011;29800;55.942;37.314;2023-05-10T06:53:53;5.47;;;2.42;;
44137;SDS011;29800;55.942;37.314;2023-05-10T06:56:19;8.35;;;2.30;;
44137;SDS011;29800;55.942;37.314;2023-05-10T06:58:47;6.90;;;2.35;;
44137;SDS011;29800;55.942;37.314;2023-05-10T07:01:14;6.38;;;2.15;;
44137;SDS011;29800;55.942;37.314;2023-05-10T07:03:40;11.77;;;2.78;;
44137;SDS011;29800;55.942;37.314;2023-05-10T07:06:06;9.73;;;2.25;;
44137;SDS011;29800;55.942;37.314;2023-05-10T07:08:33;13.82;;;2.53;;
44137;SDS011;29800;55.942;37.314;2023-05-10T07:11:00;9.88;;;2.40;;
44137;SDS011;29800;55.942;37.314;2023-05-10T07:13:31;8.00;;;2.90;;
44137;SDS011;29800;55.942;37.314;2023-05-10T07:15:58;5.18;;;2.25;;
44137;SDS011;29800;55.942;37.314;2023-05-10T07:18:25;5.30;;;2.20;;
44137;SDS011;29800;55.942;37.314;2023-05-10T07:20:51;7.93;;;2.40;;
44137;SDS011;29800;55.942;37.314;2023-05-10T07:23:18;5.03;;;2.70;;
44137;SDS011;29800;55.942;37.314;2023-05-10T07:25:45;4.95;;;1.98;;
44137;SDS011;29800;55.942;37.314;2023-05-10T07:28:15;2.95;;;1.70;;
44137;SDS011;29800;55.942;37.314;2023-05-10T07:30:44;3.30;;;1.88;;
44137;SDS011;29800;55.942;37.314;2023-05-10T07:33:11;3.97;;;1.65;;
44137;SDS011;29800;55.942;37.314;2023-05-10T07:35:39;5.75;;;1.90;;
44137;SDS011;29800;55.942;37.314;2023-05-10T07:38:05;3.00;;;1.38;;
44137;SDS011;29800;55.942;37.314;2023-05-10T07:40:32;4.15;;;1.38;;
44137;SDS011;29800;55.942;37.314;2023-05-10T07:42:58;2.78;;;1.50;;
44137;SDS011;29800;55.942;37.314;2023-05-10T07:45:27;4.32;;;1.52;;
44137;SDS011;29800;55.942;37.314;2023-05-10T07:47:53;4.38;;;1.40;;
44137;SDS011;29800;55.942;37.314;2023-05-10T07:50:20;3.75;;;1.25;;
44137;SDS011;29800;55.942;37.314;2023-05-10T07:52:47;3.35;;;1.52;;
44137;SDS011;29800;55.942;37.314;2023-05-10T07:55:13;2.45;;;1.33;;
44137;SDS011;29800;55.942;37.314;2023-05-10T07:57:40;2.75;;;1.30;;
44137;SDS011;29800;55.942;37.314;2023-05-10T08:00:08;3.10;;;1.33;;
44137;SDS011;29800;55.942;37.314;2023-05-10T08:02:40;5.32;;;1.70;;
44137;SDS011;29800;55.942;37.314;2023-05-10T08:05:07;2.60;;;1.50;;
44137;SDS011;29800;55.942;37.314;2023-05-10T08:07:33;2.15;;;1.38;;
44137;SDS011;29800;55.942;37.314;2023-05-10T08:10:00;5.22;;;1.58;;
44137;SDS011;29800;55.942;37.314;2023-05-10T08:12:26;4.60;;;1.60;;
44137;SDS011;29800;55.942;37.314;2023-05-10T08:14:53;4.10;;;1.42;;
44137;SDS011;29800;55.942;37.314;2023-05-10T08:17:19;2.38;;;1.27;;
44137;SDS011;29800;55.942;37.314;2023-05-10T08:19:46;4.65;;;1.73;;
44137;SDS011;29800;55.942;37.314;2023-05-10T08:22:12;7.72;;;1.70;;
44137;SDS011;29800;55.942;37.314;2023-05-10T08:24:38;3.67;;;1.50;;
44137;SDS011;29800;55.942;37.314;2023-05-10T08:27:05;3.53;;;1.30;;
44137;SDS011;29800;55.942;37.314;2023-05-10T08:29:31;8.30;;;2.90;;
44137;SDS011;29800;55.942;37.314;2023-05-10T08:31:57;4.75;;;1.58;;
44137;SDS011;29800;55.942;37.314;2023-05-10T08:34:24;4.00;;;1.77;;
44137;SDS011;29800;55.942;37.314;2023-05-10T08:36:50;3.05;;;1.50;;
44137;SDS011;29800;55.942;37.314;2023-05-10T08:39:17;5.10;;;2.40;;
44137;SDS011;29800;55.942;37.314;2023-05-10T08:41:43;2.92;;;1.30;;
44137;SDS011;29800;55.942;37.314;2023-05-10T08:44:11;4.88;;;3.42;;
44137;SDS011;29800;55.942;37.314;2023-05-10T08:46:37;5.05;;;1.67;;
44137;SDS011;29800;55.942;37.314;2023-05-10T08:49:09;9.82;;;2.55;;
44137;SDS011;29800;55.942;37.314;2023-05-10T08:51:52;4.47;;;1.38;;
44137;SDS011;29800;55.942;37.314;2023-05-10T08:54:21;18.70;;;4.35;;
44137;SDS011;29800;55.942;37.314;2023-05-10T08:56:48;6.00;;;1.70;;
44137;SDS011;29800;55.942;37.314;2023-05-10T08:59:15;3.75;;;1.58;;
44137;SDS011;29800;55.942;37.314;2023-05-10T09:01:42;3.00;;;1.60;;
44137;SDS011;29800;55.942;37.314;2023-05-10T09:04:11;7.88;;;1.60;;
44137;SDS011;29800;55.942;37.314;2023-05-10T09:06:38;3.00;;;1.17;;
44137;SDS011;29800;55.942;37.314;2023-05-10T09:09:04;2.97;;;1.30;;
44137;SDS011;29800;55.942;37.314;2023-05-10T09:11:30;2.88;;;1.35;;
44137;SDS011;29800;55.942;37.314;2023-05-10T09:13:57;4.88;;;1.83;;
44137;SDS011;29800;55.942;37.314;2023-05-10T09:16:24;4.90;;;1.20;;
44137;SDS011;29800;55.942;37.314;2023-05-10T09:18:50;4.50;;;1.30;;
44137;SDS011;29800;55.942;37.314;2023-05-10T09:21:16;6.05;;;3.08;;
44137;SDS011;29800;55.942;37.314;2023-05-10T09:23:44;4.22;;;1.90;;
44137;SDS011;29800;55.942;37.314;2023-05-10T09:26:12;3.97;;;1.50;;
44137;SDS011;29800;55.942;37.314;2023-05-10T09:28:55;4.05;;;1.92;;
44137;SDS011;29800;55.942;37.314;2023-05-10T09:31:23;5.88;;;2.35;;
44137;SDS011;29800;55.942;37.314;2023-05-10T09:33:51;3.45;;;1.27;;
44137;SDS011;29800;55.942;37.314;2023-05-10T09:36:17;4.25;;;2.65;;
44137;SDS011;29800;55.942;37.314;2023-05-10T09:38:48;5.35;;;2.88;;
44137;SDS011;29800;55.942;37.314;2023-05-10T09:41:18;6.72;;;3.97;;
44137;SDS011;29800;55.942;37.314;2023-05-10T09:43:46;7.25;;;2.78;;
44137;SDS011;29800;55.942;37.314;2023-05-10T09:46:13;2.75;;;1.63;;
44137;SDS011;29800;55.942;37.314;2023-05-10T09:48:44;10.90;;;6.72;;
44137;SDS011;29800;55.942;37.314;2023-05-10T09:51:21;7.05;;;3.75;;
44137;SDS011;29800;55.942;37.314;2023-05-10T09:53:48;5.22;;;3.33;;
44137;SDS011;29800;55.942;37.314;2023-05-10T09:56:34;3.42;;;2.03;;
44137;SDS011;29800;55.942;37.314;2023-05-10T09:59:03;2.95;;;1.50;;
44137;SDS011;29800;55.942;37.314;2023-05-10T10:01:29;3.90;;;1.30;;
44137;SDS011;29800;55.942;37.314;2023-05-10T10:03:56;4.32;;;1.58;;
44137;SDS011;29800;55.942;37.314;2023-05-10T10:06:24;4.90;;;1.30;;
44137;SDS011;29800;55.942;37.314;2023-05-10T10:08:50;2.67;;;1.50;;
44137;SDS011;29800;55.942;37.314;2023-05-10T10:11:18;2.28;;;1.20;;
44137;SDS011;29800;55.942;37.314;2023-05-10T10:13:45;2.78;;;1.38;;
44137;SDS011;29800;55.942;37.314;2023-05-10T10:16:12;3.03;;;1.23;;
44137;SDS011;29800;55.942;37.314;2023-05-10T10:18:38;2.55;;;1.40;;
44137;SDS011;29800;55.942;37.314;2023-05-10T10:21:08;4.55;;;1.40;;
44137;SDS011;29800;55.942;37.314;2023-05-10T10:23:35;3.45;;;1.13;;
44137;SDS011;29800;55.942;37.314;2023-05-10T10:26:03;4.53;;;1.20;;
44137;SDS011;29800;55.942;37.314;2023-05-10T10:28:36;2.92;;;1.48;;
44137;SDS011;29800;55.942;37.314;2023-05-10T10:33:59;3.50;;;1.30;;
44137;SDS011;29800;55.942;37.314;2023-05-10T10:36:40;1.65;;;1.15;;
44137;SDS011;29800;55.942;37.314;2023-05-10T10:39:09;3.53;;;1.17;;
44137;SDS011;29800;55.942;37.314;2023-05-10T10:41:40;3.65;;;1.30;;
44137;SDS011;29800;55.942;37.314;2023-05-10T10:44:28;4.47;;;1.20;;
44137;SDS011;29800;55.942;37.314;2023-05-10T10:47:07;2.53;;;1.33;;
44137;SDS011;29800;55.942;37.314;2023-05-10T10:49:50;5.13;;;1.80;;
44137;SDS011;29800;55.942;37.314;2023-05-10T10:52:32;3.10;;;1.50;;
44137;SDS011;29800;55.942;37.314;2023-05-10T10:55:08;3.83;;;2.22;;
44137;SDS011;29800;55.942;37.314;2023-05-10T11:02:59;6.05;;;1.50;;
44137;SDS011;29800;55.942;37.314;2023-05-10T11:08:06;3.35;;;1.40;;
44137;SDS011;29800;55.942;37.314;2023-05-10T11:10:50;4.25;;;1.33;;
44137;SDS011;29800;55.942;37.314;2023-05-10T11:13:26;3.10;;;1.45;;
44137;SDS011;29800;55.942;37.314;2023-05-10T11:15:55;7.90;;;2.80;;
44137;SDS011;29800;55.942;37.314;2023-05-10T11:18:29;5.63;;;1.42;;
44137;SDS011;29800;55.942;37.314;2023-05-10T11:23:32;8.90;;;4.07;;
44137;SDS011;29800;55.942;37.314;2023-05-10T11:26:13;3.42;;;1.45;;
44137;SDS011;29800;55.942;37.314;2023-05-10T11:28:43;11.48;;;4.45;;
44137;SDS011;29800;55.942;37.314;2023-05-10T11:31:14;7.60;;;4.78;;
44137;SDS011;29800;55.942;37.314;2023-05-10T11:33:42;9.68;;;5.18;;
44137;SDS011;29800;55.942;37.314;2023-05-10T11:36:17;2.85;;;1.60;;
44137;SDS011;29800;55.942;37.314;2023-05-10T11:38:45;3.88;;;1.48;;
44137;SDS011;29800;55.942;37.314;2023-05-10T11:41:12;6.88;;;1.70;;
44137;SDS011;29800;55.942;37.314;2023-05-10T11:43:39;4.28;;;1.65;;
44137;SDS011;29800;55.942;37.314;2023-05-10T11:46:06;3.60;;;1.38;;
44137;SDS011;29800;55.942;37.314;2023-05-10T11:48:40;2.25;;;1.25;;
44137;SDS011;29800;55.942;37.314;2023-05-10T11:51:07;4.03;;;1.48;;
44137;SDS011;29800;55.942;37.314;2023-05-10T11:53:34;2.97;;;1.27;;
44137;SDS011;29800;55.942;37.314;2023-05-10T11:58:34;2.35;;;1.30;;
44137;SDS011;29800;55.942;37.314;2023-05-10T12:01:03;10.07;;;4.80;;
44137;SDS011;29800;55.942;37.314;2023-05-10T12:03:31;16.33;;;8.05;;
44137;SDS011;29800;55.942;37.314;2023-05-10T12:05:57;15.40;;;7.25;;
44137;SDS011;29800;55.942;37.314;2023-05-10T12:08:25;6.07;;;2.30;;
44137;SDS011;29800;55.942;37.314;2023-05-10T12:10:53;22.00;;;8.55;;
44137;SDS011;29800;55.942;37.314;2023-05-10T12:13:29;38.38;;;14.52;;
44137;SDS011;29800;55.942;37.314;2023-05-10T12:15:58;8.85;;;4.28;;
44137;SDS011;29800;55.942;37.314;2023-05-10T12:18:26;6.97;;;2.20;;
44137;SDS011;29800;55.942;37.314;2023-05-10T12:20:52;5.43;;;1.63;;
44137;SDS011;29800;55.942;37.314;2023-05-10T12:23:19;2.50;;;1.30;;
44137;SDS011;29800;55.942;37.314;2023-05-10T12:25:46;4.50;;;1.38;;
44137;SDS011;29800;55.942;37.314;2023-05-10T12:28:12;4.82;;;1.42;;
44137;SDS011;29800;55.942;37.314;2023-05-10T12:30:39;7.50;;;1.52;;
44137;SDS011;29800;55.942;37.314;2023-05-10T12:33:10;3.38;;;1.55;;
44137;SDS011;29800;55.942;37.314;2023-05-10T12:35:45;2.83;;;1.60;;
44137;SDS011;29800;55.942;37.314;2023-05-10T12:41:06;3.83;;;1.52;;
44137;SDS011;29800;55.942;37.314;2023-05-10T12:43:34;3.38;;;1.40;;
44137;SDS011;29800;55.942;37.314;2023-05-10T12:46:11;4.35;;;1.77;;
44137;SDS011;29800;55.942;37.314;2023-05-10T12:48:43;6.13;;;1.70;;
44137;SDS011;29800;55.942;37.314;2023-05-10T12:51:11;4.47;;;1.33;;
44137;SDS011;29800;55.942;37.314;2023-05-10T12:53:41;25.75;;;14.95;;
44137;SDS011;29800;55.942;37.314;2023-05-10T12:56:07;11.48;;;5.25;;
44137;SDS011;29800;55.942;37.314;2023-05-10T12:58:34;7.07;;;2.85;;
44137;SDS011;29800;55.942;37.314;2023-05-10T13:01:00;3.40;;;1.67;;
44137;SDS011;29800;55.942;37.314;2023-05-10T13:03:27;11.55;;;5.18;;
44137;SDS011;29800;55.942;37.314;2023-05-10T13:05:53;4.78;;;2.38;;
44137;SDS011;29800;55.942;37.314;2023-05-10T13:08:20;13.65;;;6.38;;
44137;SDS011;29800;55.942;37.314;2023-05-10T13:10:46;44.95;;;20.67;;
44137;SDS011;29800;55.942;37.314;2023-05-10T13:13:12;15.98;;;8.82;;
44137;SDS011;29800;55.942;37.314;2023-05-10T13:15:39;5.95;;;2.83;;
44137;SDS011;29800;55.942;37.314;2023-05-10T13:18:06;16.40;;;9.57;;
44137;SDS011;29800;55.942;37.314;2023-05-10T13:20:32;11.63;;;6.53;;
44137;SDS011;29800;55.942;37.314;2023-05-10T13:22:58;7.90;;;3.85;;
44137;SDS011;29800;55.942;37.314;2023-05-10T13:25:25;3.70;;;2.25;;
44137;SDS011;29800;55.942;37.314;2023-05-10T13:27:51;10.30;;;2.63;;
44137;SDS011;29800;55.942;37.314;2023-05-10T13:30:17;4.00;;;1.95;;
44137;SDS011;29800;55.942;37.314;2023-05-10T13:32:44;5.38;;;1.60;;
44137;SDS011;29800;55.942;37.314;2023-05-10T13:35:11;4.15;;;1.33;;
44137;SDS011;29800;55.942;37.314;2023-05-10T13:37:37;3.88;;;1.92;;
44137;SDS011;29800;55.942;37.314;2023-05-10T13:40:04;3.65;;;2.15;;
44137;SDS011;29800;55.942;37.314;2023-05-10T13:42:31;2.28;;;1.45;;
44137;SDS011;29800;55.942;37.314;2023-05-10T13:44:59;4.55;;;1.83;;
44137;SDS011;29800;55.942;37.314;2023-05-10T13:47:30;5.03;;;2.15;;
44137;SDS011;29800;55.942;37.314;2023-05-10T13:49:56;5.72;;;2.05;;
44137;SDS011;29800;55.942;37.314;2023-05-10T13:52:23;7.13;;;3.40;;
44137;SDS011;29800;55.942;37.314;2023-05-10T13:54:49;9.90;;;5.35;;
44137;SDS011;29800;55.942;37.314;2023-05-10T13:57:18;13.02;;;6.70;;
44137;SDS011;29800;55.942;37.314;2023-05-10T13:59:44;6.95;;;3.40;;
44137;SDS011;29800;55.942;37.314;2023-05-10T14:02:10;4.63;;;2.03;;
44137;SDS011;29800;55.942;37.314;2023-05-10T14:04:38;2.88;;;1.30;;
44137;SDS011;29800;55.942;37.314;2023-05-10T14:07:05;2.80;;;1.55;;
44137;SDS011;29800;55.942;37.314;2023-05-10T14:09:31;5.40;;;1.88;;
44137;SDS011;29800;55.942;37.314;2023-05-10T14:11:57;3.08;;;1.83;;
44137;SDS011;29800;55.942;37.314;2023-05-10T14:14:24;3.88;;;2.00;;
44137;SDS011;29800;55.942;37.314;2023-05-10T14:16:50;4.05;;;1.60;;
44137;SDS011;29800;55.942;37.314;2023-05-10T14:19:17;8.38;;;4.50;;
44137;SDS011;29800;55.942;37.314;2023-05-10T14:21:45;3.95;;;1.80;;
44137;SDS011;29800;55.942;37.314;2023-05-10T14:24:11;4.85;;;2.10;;
44137;SDS011;29800;55.942;37.314;2023-05-10T14:26:37;3.00;;;1.45;;
44137;SDS011;29800;55.942;37.314;2023-05-10T14:29:04;6.35;;;2.28;;
44137;SDS011;29800;55.942;37.314;2023-05-10T14:31:31;5.13;;;1.92;;
44137;SDS011;29800;55.942;37.314;2023-05-10T14:33:57;6.45;;;1.63;;
44137;SDS011;29800;55.942;37.314;2023-05-10T14:36:24;4.55;;;1.90;;
44137;SDS011;29800;55.942;37.314;2023-05-10T14:38:51;6.13;;;2.75;;
44137;SDS011;29800;55.942;37.314;2023-05-10T14:41:17;7.32;;;3.05;;
44137;SDS011;29800;55.942;37.314;2023-05-10T14:43:43;3.55;;;2.10;;
44137;SDS011;29800;55.942;37.314;2023-05-10T14:46:10;8.70;;;1.65;;
44137;SDS011;29800;55.942;37.314;2023-05-10T14:48:36;2.95;;;1.60;;
44137;SDS011;29800;55.942;37.314;2023-05-10T14:51:03;9.73;;;5.03;;
44137;SDS011;29800;55.942;37.314;2023-05-10T14:53:29;6.57;;;3.15;;
44137;SDS011;29800;55.942;37.314;2023-05-10T14:55:56;6.75;;;2.35;;
44137;SDS011;29800;55.942;37.314;2023-05-10T14:58:23;3.58;;;1.60;;
44137;SDS011;29800;55.942;37.314;2023-05-10T15:00:49;7.75;;;2.50;;
44137;SDS011;29800;55.942;37.314;2023-05-10T15:03:15;8.07;;;2.47;;
44137;SDS011;29800;55.942;37.314;2023-05-10T15:05:42;9.38;;;4.35;;